Time;durP1;ratioP1;P1;durP2;ratioP2;P2;SDS_P1;SDS_P2;PMS_P1;PMS_P2;Temp;Humidity;BMP_temperature;BMP_pressure;BME280_temperature;BME280_humidity;BME280_pressure;Samples;Min_cycle;Max_cycle;Signal;HPM_P1;HPM_P2
2022/11/30 00:00:50;;;;;;;5.72;3.20;;;;;;;5.00;79.64;95358.75;5054150;28;20044;-81
2022/11/30 00:03:15;;;;;;;5.85;2.90;;;;;;;4.56;80.20;95300.63;5068365;28;20044;-81
2022/11/30 00:05:40;;;;;;;6.70;4.13;;;;;;;5.08;80.46;95382.06;5069213;28;20075;-81
2022/11/30 00:08:06;;;;;;;12.02;5.90;;;;;;;5.03;80.04;95374.06;5053509;28;20080;-81
2022/11/30 00:10:31;;;;;;;19.42;6.32;;;;;;;4.82;80.45;95341.31;5035878;28;20052;-81
2022/11/30 00:12:57;;;;;;;12.93;7.00;;;;;;;4.99;80.01;95368.47;5053661;28;20032;-81
2022/11/30 00:15:22;;;;;;;12.95;7.15;;;;;;;5.07;80.34;95387.53;5036159;28;20041;-81
2022/11/30 00:17:47;;;;;;;15.88;7.00;;;;;;;4.57;80.52;95312.75;5036868;28;20037;-81
2022/11/30 00:20:14;;;;;;;13.65;6.93;;;;;;;5.15;80.34;95401.13;5035661;28;20048;-81
2022/11/30 00:22:39;;;;;;;12.48;6.03;;;;;;;4.56;80.69;95313.78;5054173;28;20519;-81
2022/11/30 00:25:05;;;;;;;12.60;6.28;;;;;;;4.99;81.33;95401.84;5052935;28;20029;-81
2022/11/30 00:27:32;;;;;;;12.18;6.93;;;;;;;5.03;81.49;95418.75;5036110;28;20469;-81
2022/11/30 00:29:58;;;;;;;13.38;5.90;;;;;;;3.80;81.11;95201.97;5054059;28;20052;-82
2022/11/30 00:32:25;;;;;;;13.57;6.90;;;;;;;4.59;80.97;95315.13;5054063;28;20075;-82
2022/11/30 00:34:51;;;;;;;11.40;6.32;;;;;;;4.23;80.73;95274.22;5041702;28;20517;-81
2022/11/30 00:37:16;;;;;;;12.95;6.70;;;;;;;4.70;80.65;95334.53;5046268;28;20036;-81
2022/11/30 00:39:41;;;;;;;10.45;6.15;;;;;;;4.47;80.66;95296.78;5053676;28;20052;-81
2022/11/30 00:42:07;;;;;;;12.05;6.32;;;;;;;4.93;81.14;95372.03;5053851;28;20128;-81
2022/11/30 00:44:32;;;;;;;14.23;6.75;;;;;;;5.10;80.73;95408.91;5035921;28;20103;-81
2022/11/30 00:46:58;;;;;;;9.23;5.50;;;;;;;4.18;81.80;95274.91;5035965;28;20041;-81
2022/11/30 00:49:23;;;;;;;10.48;5.72;;;;;;;4.78;81.50;95358.59;5060504;28;20049;-81
2022/11/30 00:51:48;;;;;;;16.85;6.32;;;;;;;4.99;80.88;95392.13;5044996;28;20036;-81
2022/11/30 00:54:14;;;;;;;11.85;6.47;;;;;;;4.53;81.36;95311.59;5043621;28;20157;-81
2022/11/30 00:56:39;;;;;;;10.77;5.72;;;;;;;4.86;81.06;95354.81;5059306;28;20415;-81
2022/11/30 00:59:05;;;;;;;11.20;6.72;;;;;;;4.95;81.51;95372.63;5025040;28;20453;-81
2022/11/30 01:01:31;;;;;;;16.38;7.03;;;;;;;5.09;80.90;95385.47;5042210;28;20044;-82
2022/11/30 01:03:57;;;;;;;12.20;6.90;;;;;;;4.50;81.48;95298.16;5041756;28;20415;-81
2022/11/30 01:06:22;;;;;;;10.98;6.40;;;;;;;5.09;81.75;95388.91;5040943;28;20044;-81
2022/11/30 01:08:49;;;;;;;15.07;6.82;;;;;;;4.31;81.76;95286.19;5040790;28;20037;-81
2022/11/30 01:11:23;;;;;;;10.27;6.30;;;;;;;3.47;81.70;95157.19;5041007;28;20037;-81
2022/11/30 01:13:48;;;;;;;9.30;5.28;;;;;;;4.53;82.36;95316.06;5057964;28;20491;-81
2022/11/30 01:16:18;;;;;;;12.05;7.00;;;;;;;4.99;82.09;95386.06;5039332;28;20044;-81
2022/11/30 01:18:45;;;;;;;12.25;5.40;;;;;;;4.11;82.31;95255.06;5058663;28;20465;-81
2022/11/30 01:21:13;;;;;;;9.57;4.65;;;;;;;4.98;81.79;95389.72;5058709;28;20120;-81
2022/11/30 01:23:39;;;;;;;15.80;6.55;;;;;;;4.69;81.71;95340.81;5059416;28;20041;-81
2022/11/30 01:26:06;;;;;;;9.27;4.32;;;;;;;5.01;81.76;95384.03;5039585;28;20036;-81
2022/11/30 01:28:32;;;;;;;10.05;4.55;;;;;;;3.91;82.11;95221.31;5064567;28;20421;-81
2022/11/30 01:31:00;;;;;;;7.20;4.22;;;;;;;4.65;82.59;95348.38;5028580;28;20102;-81
2022/11/30 01:33:25;;;;;;;7.00;3.83;;;;;;;4.01;81.98;95255.66;5040228;28;20044;-81
2022/11/30 01:36:19;;;;;;;5.70;3.83;;;;;;;4.87;81.75;95388.75;5040005;28;20045;-81
2022/11/30 01:38:49;;;;;;;7.63;4.07;;;;;;;4.47;82.59;95324.88;5055381;28;20033;-81
2022/11/30 01:41:22;;;;;;;7.93;5.07;;;;;;;4.59;82.71;95339.56;5040222;28;20044;-81
2022/11/30 01:44:16;;;;;;;10.63;4.68;;;;;;;2.21;82.10;94961.31;5040624;28;20392;-81
2022/11/30 01:46:53;;;;;;;8.13;4.68;;;;;;;4.92;82.42;95388.03;5072701;28;20175;-81
2022/11/30 01:49:27;;;;;;;7.00;4.30;;;;;;;4.07;82.15;95257.34;5040425;28;20048;-81
2022/11/30 01:52:00;;;;;;;12.57;5.30;;;;;;;4.23;82.37;95280.28;5040292;28;20052;-81
2022/11/30 01:54:32;;;;;;;9.25;5.15;;;;;;;3.51;82.23;95163.53;5057519;28;20037;-81
2022/11/30 01:57:19;;;;;;;10.65;4.82;;;;;;;3.95;82.00;95221.66;5057421;28;20043;-81
2022/11/30 01:59:47;;;;;;;10.68;5.47;;;;;;;3.84;82.81;95220.66;5040542;28;20550;-81
2022/11/30 02:02:12;;;;;;;14.50;5.65;;;;;;;4.46;82.41;95308.31;5041040;28;20152;-81
2022/11/30 02:04:38;;;;;;;10.23;6.00;;;;;;;4.41;82.96;95313.47;5061751;28;20388;-81
2022/11/30 02:07:06;;;;;;;11.30;6.65;;;;;;;4.90;82.87;95377.75;5062921;28;20388;-82
2022/11/30 02:09:40;;;;;;;10.68;6.82;;;;;;;4.13;82.61;95259.06;5058665;28;20444;-82
2022/11/30 02:12:09;;;;;;;15.50;7.35;;;;;;;3.97;83.14;95225.63;5040696;28;20129;-81
2022/11/30 02:14:44;;;;;;;11.85;6.93;;;;;;;4.85;82.38;95368.97;5057770;28;20407;-81
2022/11/30 02:17:10;;;;;;;10.70;6.53;;;;;;;4.85;83.61;95367.16;5058137;28;20070;-81
2022/11/30 02:20:12;;;;;;;12.35;6.13;;;;;;;4.89;83.17;95370.91;5058948;28;20033;-81
2022/11/30 02:22:46;;;;;;;12.05;6.28;;;;;;;4.77;82.82;95349.13;5058450;28;20043;-81
2022/11/30 02:25:34;;;;;;;11.48;5.97;;;;;;;4.92;82.88;95373.06;5026887;28;20041;-81
2022/11/30 02:28:37;;;;;;;15.25;7.32;;;;;;;4.91;82.47;95368.84;5036809;28;20052;-81
2022/11/30 02:31:09;;;;;;;10.73;6.18;;;;;;;4.23;82.64;95266.34;5005913;28;20041;-81
2022/11/30 02:33:35;;;;;;;9.15;6.30;;;;;;;4.48;82.93;95310.72;5048341;28;20115;-81
2022/11/30 02:36:02;;;;;;;9.40;6.50;;;;;;;4.37;83.14;95280.00;5001992;28;20037;-81
2022/11/30 02:38:28;;;;;;;10.13;5.85;;;;;;;4.93;83.36;95363.34;5009343;28;20048;-81
2022/11/30 02:40:54;;;;;;;7.90;4.65;;;;;;;4.64;82.95;95318.66;5037326;28;20432;-81
2022/11/30 02:43:22;;;;;;;6.10;3.97;;;;;;;4.84;82.74;95357.66;5036754;28;20123;-81
2022/11/30 02:45:58;;;;;;;9.63;3.85;;;;;;;4.84;83.79;95364.75;5013780;28;20137;-81
2022/11/30 02:48:41;;;;;;;5.65;3.47;;;;;;;4.23;83.21;95263.72;5017178;28;20129;-81
2022/11/30 02:51:12;;;;;;;5.05;3.92;;;;;;;4.25;82.80;95267.72;5015189;28;20069;-80
2022/11/30 02:53:37;;;;;;;4.57;3.33;;;;;;;4.10;82.85;95256.91;4996203;28;20046;-80
2022/11/30 02:56:03;;;;;;;8.15;3.70;;;;;;;4.12;83.14;95267.19;5010482;28;20050;-80
2022/11/30 02:58:29;;;;;;;5.75;4.03;;;;;;;4.82;83.51;95364.19;5008403;28;20034;-80
2022/11/30 03:00:54;;;;;;;5.88;3.92;;;;;;;3.84;83.17;95231.94;5012183;28;20038;-81
2022/11/30 03:03:20;;;;;;;8.23;4.22;;;;;;;4.06;83.77;95261.00;5012241;28;20052;-81
2022/11/30 03:05:46;;;;;;;6.82;4.20;;;;;;;4.63;84.11;95359.09;5012583;28;20062;-81
2022/11/30 03:08:11;;;;;;;6.45;4.68;;;;;;;4.10;83.88;95293.66;4994048;28;20084;-81
2022/11/30 03:10:36;;;;;;;8.77;4.47;;;;;;;4.56;84.97;95362.88;5011652;28;20041;-81
2022/11/30 03:13:02;;;;;;;10.90;4.70;;;;;;;4.10;85.34;95303.34;4994566;28;20121;-81
2022/11/30 03:15:27;;;;;;;6.35;4.53;;;;;;;3.97;84.80;95278.13;5012091;28;20104;-81
2022/11/30 03:17:53;;;;;;;8.18;4.47;;;;;;;4.62;85.40;95369.81;4994298;28;20052;-81
2022/11/30 03:20:18;;;;;;;9.13;4.65;;;;;;;4.63;84.97;95371.44;4993750;28;20095;-81
2022/11/30 03:22:43;;;;;;;8.95;4.68;;;;;;;4.65;84.93;95375.41;4994772;28;20038;-81
2022/11/30 03:25:09;;;;;;;8.98;5.32;;;;;;;4.64;85.31;95368.56;5011112;28;20535;-81
2022/11/30 03:27:34;;;;;;;10.18;4.60;;;;;;;4.68;84.93;95370.72;4994041;28;20042;-82
2022/11/30 03:30:00;;;;;;;8.93;4.90;;;;;;;4.21;85.53;95334.03;5011774;28;20052;-81
2022/11/30 03:32:25;;;;;;;9.45;4.28;;;;;;;4.39;85.43;95328.66;5012227;28;20097;-81
2022/11/30 03:34:50;;;;;;;11.90;5.32;;;;;;;3.21;85.57;95152.38;4993816;28;20041;-81
2022/11/30 03:37:16;;;;;;;8.00;5.10;;;;;;;4.35;85.47;95329.34;4994251;28;20452;-81
2022/11/30 03:39:41;;;;;;;7.57;3.83;;;;;;;4.53;85.87;95369.38;4993999;28;20048;-81
2022/11/30 03:42:07;;;;;;;10.07;3.97;;;;;;;3.96;85.57;95279.19;5011664;28;20081;-81
2022/11/30 03:44:32;;;;;;;5.72;4.22;;;;;;;4.10;85.74;95274.47;5005147;28;20057;-81
2022/11/30 03:46:57;;;;;;;5.82;4.13;;;;;;;3.34;85.15;95179.19;5023191;28;20044;-81
2022/11/30 03:49:23;;;;;;;6.13;3.95;;;;;;;4.42;85.43;95343.16;5027201;28;20056;-81
2022/11/30 03:51:48;;;;;;;5.38;3.75;;;;;;;4.08;84.87;95285.19;5008693;28;20133;-81
2022/11/30 03:54:14;;;;;;;5.68;4.18;;;;;;;4.27;84.72;95307.63;5030948;28;20112;-81
2022/11/30 03:56:39;;;;;;;4.63;3.78;;;;;;;3.73;84.70;95231.97;5013977;28;20091;-81
2022/11/30 03:59:05;;;;;;;5.00;3.45;;;;;;;4.15;84.47;95288.50;5030737;28;20045;-80
2022/11/30 04:01:30;;;;;;;7.93;4.45;;;;;;;3.26;85.10;95178.72;5035667;28;20129;-81
2022/11/30 04:03:56;;;;;;;4.13;3.22;;;;;;;3.88;84.96;95276.91;5049101;28;20049;-81
2022/11/30 04:06:22;;;;;;;5.70;3.67;;;;;;;4.58;85.59;95379.97;5032118;28;20044;-81
2022/11/30 04:08:48;;;;;;;8.70;3.70;;;;;;;4.17;85.14;95320.56;5032048;28;20038;-81
2022/11/30 04:11:14;;;;;;;5.45;3.95;;;;;;;4.48;85.74;95358.78;5047088;28;20053;-81
2022/11/30 04:13:40;;;;;;;5.80;3.90;;;;;;;4.62;85.22;95380.34;5047344;28;20034;-81
2022/11/30 04:16:06;;;;;;;7.10;3.40;;;;;;;3.64;85.20;95247.25;5026590;28;20048;-81
2022/11/30 04:18:33;;;;;;;5.72;3.65;;;;;;;4.25;85.24;95335.16;4999940;28;20037;-81
2022/11/30 04:20:59;;;;;;;5.05;3.60;;;;;;;4.52;84.69;95380.13;5041261;28;20034;-81
2022/11/30 04:23:29;;;;;;;8.30;3.85;;;;;;;3.77;85.55;95280.31;5026409;28;20082;-80
2022/11/30 04:25:56;;;;;;;5.20;4.13;;;;;;;4.50;85.55;95387.44;5055346;28;20120;-80
2022/11/30 04:28:21;;;;;;;7.63;3.70;;;;;;;3.57;85.72;95248.38;5038111;28;20523;-80
2022/11/30 04:30:47;;;;;;;6.93;4.07;;;;;;;4.20;85.81;95348.97;5042177;28;20052;-81
2022/11/30 04:33:14;;;;;;;6.55;3.65;;;;;;;3.86;85.53;95287.63;5017854;28;20892;-81
2022/11/30 04:35:46;;;;;;;3.60;3.00;;;;;;;3.63;85.26;95253.50;5034887;28;20427;-81
2022/11/30 04:38:11;;;;;;;5.15;2.70;;;;;;;4.04;85.86;95331.31;5035250;28;20129;-81
2022/11/30 04:40:41;;;;;;;3.63;2.80;;;;;;;4.41;85.63;95365.97;5053252;28;20127;-81
2022/11/30 04:43:07;;;;;;;3.47;2.78;;;;;;;4.49;85.00;95364.84;5054174;28;20163;-81
2022/11/30 04:45:32;;;;;;;3.47;2.42;;;;;;;3.56;84.77;95237.09;5037571;28;20057;-81
2022/11/30 04:47:57;;;;;;;3.72;2.50;;;;;;;4.37;85.03;95372.72;5036889;28;20037;-81
2022/11/30 04:50:23;;;;;;;4.63;2.75;;;;;;;4.50;85.15;95387.44;5054657;28;20085;-81
2022/11/30 04:52:48;;;;;;;5.72;2.88;;;;;;;4.54;85.17;95385.94;5031277;28;20041;-81
2022/11/30 04:55:18;;;;;;;3.80;2.80;;;;;;;4.54;85.27;95393.81;5051023;28;20064;-81
2022/11/30 04:57:43;;;;;;;3.88;2.63;;;;;;;4.35;85.06;95347.72;5041722;28;20053;-81
2022/11/30 05:00:10;;;;;;;10.93;4.35;;;;;;;4.25;85.34;95343.84;5025193;28;20038;-81
2022/11/30 05:02:35;;;;;;;3.90;2.75;;;;;;;4.31;85.29;95370.19;5026266;28;20042;-81
2022/11/30 05:05:01;;;;;;;5.05;3.40;;;;;;;4.62;85.05;95401.34;5022472;28;20045;-81
2022/11/30 05:07:26;;;;;;;6.50;4.07;;;;;;;3.99;84.36;95294.44;5045817;28;20104;-80
2022/11/30 05:09:52;;;;;;;14.80;4.75;;;;;;;4.51;85.13;95399.53;5028321;28;20041;-80
2022/11/30 05:12:18;;;;;;;10.68;4.75;;;;;;;4.55;85.67;95398.06;5031667;28;20045;-81
2022/11/30 05:14:43;;;;;;;10.00;4.70;;;;;;;4.22;85.17;95341.66;5032723;28;20271;-81
2022/11/30 05:17:09;;;;;;;6.10;4.25;;;;;;;3.95;85.28;95287.28;5032606;28;20080;-81
2022/11/30 05:19:34;;;;;;;8.45;3.75;;;;;;;4.20;85.13;95327.16;5041144;28;20049;-82
2022/11/30 05:21:59;;;;;;;10.48;3.53;;;;;;;4.09;85.16;95338.50;5032435;28;20108;-82
2022/11/30 05:24:25;;;;;;;5.97;3.13;;;;;;;4.59;84.90;95407.84;5010824;28;20056;-82
2022/11/30 05:26:50;;;;;;;4.80;3.53;;;;;;;3.91;85.04;95301.84;5020476;28;20121;-82
2022/11/30 05:29:16;;;;;;;7.97;3.92;;;;;;;3.74;84.70;95265.00;5014089;28;20132;-81
2022/11/30 05:31:41;;;;;;;7.75;2.97;;;;;;;2.97;84.75;95130.66;5021900;28;20370;-82
2022/11/30 05:34:06;;;;;;;4.05;3.03;;;;;;;4.77;84.90;95406.94;5005721;28;20068;-81
2022/11/30 05:36:32;;;;;;;5.43;3.15;;;;;;;4.68;84.89;95405.69;5029736;28;20057;-81
2022/11/30 05:38:57;;;;;;;5.20;3.25;;;;;;;4.00;85.19;95311.78;5008023;28;20532;-81
2022/11/30 05:41:22;;;;;;;6.05;2.72;;;;;;;3.99;84.72;95299.69;5012517;28;20084;-81
2022/11/30 05:43:48;;;;;;;5.97;3.35;;;;;;;3.86;84.53;95292.06;5008994;28;20124;-82
2022/11/30 05:46:13;;;;;;;7.10;3.55;;;;;;;4.59;84.99;95417.56;5012437;28;20061;-82
2022/11/30 05:48:46;;;;;;;6.45;3.03;;;;;;;4.21;84.71;95341.91;5011432;28;20107;-82
2022/11/30 05:51:14;;;;;;;4.60;3.10;;;;;;;4.55;85.11;95417.25;5022577;28;20060;-82
2022/11/30 05:53:41;;;;;;;6.38;3.13;;;;;;;4.56;84.86;95416.22;5011061;28;20037;-82
2022/11/30 05:56:09;;;;;;;6.70;3.70;;;;;;;3.82;84.95;95325.81;5024681;28;20147;-82
2022/11/30 05:58:34;;;;;;;7.32;3.08;;;;;;;4.58;84.63;95422.00;5020583;28;20082;-81
2022/11/30 06:01:00;;;;;;;5.97;3.35;;;;;;;3.58;84.41;95271.75;5025648;28;20176;-82
2022/11/30 06:03:28;;;;;;;5.18;2.92;;;;;;;4.63;84.31;95434.47;5023655;28;20072;-82
2022/11/30 06:05:53;;;;;;;6.88;2.92;;;;;;;4.35;84.01;95393.13;5021313;28;20045;-82
2022/11/30 06:08:18;;;;;;;6.82;2.80;;;;;;;4.03;83.91;95331.53;5031295;28;20459;-82
2022/11/30 06:10:44;;;;;;;4.32;3.05;;;;;;;3.63;84.29;95261.38;5023435;28;20179;-82
2022/11/30 06:13:10;;;;;;;9.60;4.13;;;;;;;4.36;83.62;95372.94;5030598;28;20197;-83
2022/11/30 06:15:36;;;;;;;10.10;4.55;;;;;;;3.95;83.69;95309.06;5019925;28;20073;-82
2022/11/30 06:18:03;;;;;;;8.27;4.65;;;;;;;4.74;83.66;95451.25;5029874;28;20044;-82
2022/11/30 06:20:28;;;;;;;8.23;4.65;;;;;;;4.70;83.67;95429.09;5040496;28;20143;-81
2022/11/30 06:22:54;;;;;;;9.77;6.38;;;;;;;3.85;83.34;95304.38;5018554;28;20041;-81
2022/11/30 06:25:20;;;;;;;7.88;4.65;;;;;;;3.75;83.73;95284.97;5050075;28;20044;-82
2022/11/30 06:27:45;;;;;;;8.93;5.10;;;;;;;4.87;82.94;95453.66;5030986;28;20651;-81
2022/11/30 06:30:11;;;;;;;8.52;4.80;;;;;;;3.69;83.10;95286.69;5028171;28;20128;-81
2022/11/30 06:32:37;;;;;;;9.18;4.90;;;;;;;4.56;83.26;95410.97;5039097;28;20048;-81
2022/11/30 06:35:02;;;;;;;9.27;5.28;;;;;;;4.66;82.91;95416.41;5055456;28;20041;-80
2022/11/30 06:37:28;;;;;;;8.05;4.38;;;;;;;4.32;83.07;95358.69;5039108;28;20136;-81
2022/11/30 06:39:53;;;;;;;9.13;4.95;;;;;;;4.55;82.62;95388.34;5039867;28;20052;-81
2022/11/30 06:42:19;;;;;;;13.57;5.18;;;;;;;4.52;82.74;95382.75;5043843;28;20041;-81
2022/11/30 06:44:44;;;;;;;9.90;4.72;;;;;;;4.05;82.41;95327.63;5021449;28;20084;-81
2022/11/30 06:47:10;;;;;;;10.68;4.30;;;;;;;4.14;82.41;95349.09;5041662;28;20597;-82
2022/11/30 06:49:35;;;;;;;7.22;4.60;;;;;;;4.12;82.78;95327.53;5024084;28;20195;-81
2022/11/30 06:52:05;;;;;;;10.38;5.38;;;;;;;4.76;82.89;95436.84;5035266;28;20056;-82
2022/11/30 06:54:30;;;;;;;6.95;3.70;;;;;;;3.74;82.19;95265.81;5041628;28;20051;-83
2022/11/30 06:56:56;;;;;;;6.60;3.97;;;;;;;4.07;82.54;95322.97;5038993;28;20049;-83
2022/11/30 06:59:22;;;;;;;7.22;4.38;;;;;;;4.35;82.65;95377.38;5040660;28;20657;-82
2022/11/30 07:01:47;;;;;;;7.72;4.30;;;;;;;4.24;83.15;95347.50;5022890;28;20160;-86
2022/11/30 07:04:13;;;;;;;6.85;4.05;;;;;;;4.03;83.02;95347.28;5023853;28;20813;-82
2022/11/30 07:06:39;;;;;;;10.57;4.93;;;;;;;3.94;83.45;95304.84;5015513;28;20336;-81
2022/11/30 07:09:05;;;;;;;8.13;4.85;;;;;;;4.59;83.42;95407.06;5034317;28;20049;-82
2022/11/30 07:11:31;;;;;;;8.88;5.25;;;;;;;4.84;83.15;95456.72;5022515;28;20284;-83
2022/11/30 07:13:56;;;;;;;11.07;5.50;;;;;;;3.89;82.90;95297.63;5021081;28;20044;-82
2022/11/30 07:16:22;;;;;;;12.32;6.95;;;;;;;4.95;82.63;95463.81;5023849;28;20114;-82
2022/11/30 07:18:47;;;;;;;8.50;5.28;;;;;;;4.29;82.81;95380.94;5042394;28;20052;-82
2022/11/30 07:21:12;;;;;;;9.55;5.95;;;;;;;3.78;82.53;95259.09;5025358;28;20058;-82
2022/11/30 07:26:23;;;;;;;10.30;6.50;;;;;;;4.12;82.96;95333.56;5037659;28;20124;-81
2022/11/30 07:28:53;;;;;;;14.68;8.15;;;;;;;4.36;83.28;95397.38;5036425;28;20044;-81
2022/11/30 07:31:27;;;;;;;15.27;8.40;;;;;;;4.45;82.43;95388.13;5055050;28;20049;-81
2022/11/30 07:33:53;;;;;;;17.13;9.00;;;;;;;3.94;82.38;95286.47;5024322;28;20767;-81
2022/11/30 07:36:21;;;;;;;21.67;9.07;;;;;;;4.40;82.77;95355.72;5041764;28;20053;-81
2022/11/30 07:38:47;;;;;;;18.15;6.72;;;;;;;4.22;82.10;95317.25;5055102;28;20881;-82
2022/11/30 07:41:12;;;;;;;11.50;5.63;;;;;;;4.79;82.88;95433.78;5022971;28;20684;-82
2022/11/30 07:43:38;;;;;;;10.07;4.90;;;;;;;4.40;81.81;95334.69;5022364;28;20044;-81
2022/11/30 07:46:05;;;;;;;10.65;5.03;;;;;;;4.80;82.80;95416.97;5047222;28;20107;-81
2022/11/30 07:48:30;;;;;;;9.68;4.85;;;;;;;4.28;83.10;95337.31;5025755;28;20036;-81
2022/11/30 07:51:04;;;;;;;8.77;4.75;;;;;;;4.85;82.77;95419.72;5026095;28;20047;-83
2022/11/30 07:53:30;;;;;;;10.18;4.80;;;;;;;4.54;83.39;95357.84;5023004;28;20044;-82
2022/11/30 07:56:01;;;;;;;8.50;4.68;;;;;;;4.22;83.48;95299.66;5038995;28;20049;-83
2022/11/30 07:58:28;;;;;;;9.80;5.30;;;;;;;4.92;83.37;95425.63;5040216;28;20096;-81
2022/11/30 08:00:53;;;;;;;9.73;5.63;;;;;;;5.14;83.44;95440.78;5024895;28;20929;-81
2022/11/30 08:03:19;;;;;;;11.48;5.38;;;;;;;4.75;83.08;95376.66;5046418;28;20049;-84
2022/11/30 08:05:44;;;;;;;14.05;6.75;;;;;;;4.30;82.89;95306.41;5027452;28;20045;-82
2022/11/30 08:08:10;;;;;;;14.80;7.10;;;;;;;4.63;83.36;95345.16;5038838;28;20191;-82
2022/11/30 08:10:35;;;;;;;10.82;6.25;;;;;;;4.33;83.01;95295.44;5019580;28;20052;-81
2022/11/30 08:13:00;;;;;;;10.85;6.22;;;;;;;4.83;82.70;95344.75;5035341;28;20063;-83
2022/11/30 08:15:26;;;;;;;9.25;5.50;;;;;;;5.11;82.39;95378.94;5038160;28;20590;-81
2022/11/30 08:17:54;;;;;;;12.82;5.85;;;;;;;4.79;82.42;95362.03;5022266;28;20080;-83
2022/11/30 08:20:20;;;;;;;11.57;5.13;;;;;;;5.54;82.59;95441.56;5024495;28;20141;-82
2022/11/30 08:22:45;;;;;;;12.40;4.85;;;;;;;4.79;82.37;95323.41;5043545;28;20073;-83
2022/11/30 08:25:10;;;;;;;6.45;3.47;;;;;;;4.70;81.99;95305.63;5042348;28;20491;-82
2022/11/30 08:27:36;;;;;;;7.00;3.70;;;;;;;4.84;81.87;95320.06;5021867;28;20052;-82
2022/11/30 08:30:01;;;;;;;7.90;3.60;;;;;;;5.45;81.81;95442.97;5054446;28;20400;-81
2022/11/30 08:32:27;;;;;;;7.05;3.47;;;;;;;4.37;81.90;95296.56;5020370;28;20071;-82
2022/11/30 08:34:52;;;;;;;5.82;3.50;;;;;;;5.21;81.99;95402.81;5019666;28;20450;-82
2022/11/30 08:37:20;;;;;;;7.45;2.95;;;;;;;4.55;81.42;95325.31;5017696;28;20049;-83
2022/11/30 08:39:49;;;;;;;7.15;3.20;;;;;;;4.55;81.93;95312.19;5018746;28;20040;-82
2022/11/30 08:42:14;;;;;;;7.20;3.30;;;;;;;4.77;81.18;95332.56;5039482;28;20124;-82
2022/11/30 08:44:39;;;;;;;7.07;3.20;;;;;;;5.41;81.12;95447.13;5021027;28;20079;-82
2022/11/30 08:47:06;;;;;;;4.57;3.00;;;;;;;4.55;80.41;95304.28;5033707;28;20049;-82
2022/11/30 08:49:31;;;;;;;7.72;3.58;;;;;;;4.64;81.13;95325.75;5040565;28;20045;-81
2022/11/30 08:51:56;;;;;;;9.82;3.67;;;;;;;5.23;81.44;95405.19;5036820;28;20055;-83
2022/11/30 08:54:22;;;;;;;10.25;3.25;;;;;;;5.05;80.51;95364.09;5022873;28;20052;-82
2022/11/30 08:56:47;;;;;;;11.35;4.10;;;;;;;5.15;80.14;95389.78;5026425;28;20045;-81
2022/11/30 08:59:13;;;;;;;11.68;4.43;;;;;;;4.36;80.23;95260.03;5038204;28;21057;-82
2022/11/30 09:01:38;;;;;;;9.63;4.43;;;;;;;4.84;80.19;95333.22;5019971;28;20155;-82
2022/11/30 09:04:03;;;;;;;13.15;4.97;;;;;;;5.13;80.79;95374.25;5010680;28;20041;-82
2022/11/30 09:06:29;;;;;;;8.38;4.40;;;;;;;5.08;80.07;95347.06;5035257;28;20048;-81
2022/11/30 09:08:57;;;;;;;9.30;3.83;;;;;;;5.32;79.71;95383.56;5036072;28;20446;-82
2022/11/30 09:11:31;;;;;;;14.40;4.47;;;;;;;5.78;80.48;95439.63;5014683;28;20040;-81
2022/11/30 09:14:00;;;;;;;22.65;4.90;;;;;;;4.78;79.46;95307.88;5025086;28;20711;-80
2022/11/30 09:16:26;;;;;;;5.95;3.40;;;;;;;5.51;79.94;95412.28;5059151;28;20568;-83
2022/11/30 09:18:52;;;;;;;12.98;4.53;;;;;;;5.00;79.30;95337.75;5023976;28;20125;-81
2022/11/30 09:21:20;;;;;;;12.25;3.38;;;;;;;5.75;79.64;95451.41;5043624;28;20127;-81
2022/11/30 09:23:46;;;;;;;8.68;3.75;;;;;;;5.38;79.47;95395.78;5024040;28;21372;-80
2022/11/30 09:26:16;;;;;;;6.47;3.20;;;;;;;5.76;79.56;95450.38;5024526;28;20044;-80
2022/11/30 09:28:44;;;;;;;10.20;3.38;;;;;;;5.39;79.46;95402.63;5036274;28;20045;-80
2022/11/30 09:31:12;;;;;;;6.57;3.10;;;;;;;5.43;79.56;95393.22;5023462;28;20041;-80
2022/11/30 09:33:39;;;;;;;16.40;6.25;;;;;;;5.33;80.44;95392.25;5022832;28;20068;-81
2022/11/30 09:36:10;;;;;;;11.43;3.35;;;;;;;5.08;80.02;95354.97;5021826;28;20073;-81
2022/11/30 09:38:36;;;;;;;9.63;2.78;;;;;;;5.04;80.25;95352.78;5041177;28;20056;-81
2022/11/30 09:41:13;;;;;;;6.95;3.05;;;;;;;5.23;80.53;95365.75;5021139;28;20055;-82
2022/11/30 09:43:59;;;;;;;7.25;2.78;;;;;;;5.97;80.51;95459.47;5037862;28;20154;-81
2022/11/30 09:46:35;;;;;;;8.23;3.20;;;;;;;5.00;79.73;95308.81;5020170;28;20053;-80
2022/11/30 09:49:03;;;;;;;6.07;3.33;;;;;;;5.22;79.81;95351.00;5037544;28;20376;-81
2022/11/30 09:51:45;;;;;;;5.32;2.95;;;;;;;5.89;80.67;95453.78;5021456;28;20064;-81
2022/11/30 09:54:38;;;;;;;9.25;4.32;;;;;;;5.29;79.09;95365.63;5032767;28;20044;-81
2022/11/30 09:57:31;;;;;;;6.60;3.25;;;;;;;5.91;79.72;95462.25;5043028;28;20037;-82
2022/11/30 10:00:03;;;;;;;10.35;3.88;;;;;;;5.74;79.75;95420.88;5021728;28;20041;-82
2022/11/30 10:02:32;;;;;;;10.57;3.10;;;;;;;5.78;79.09;95418.56;5031773;28;20055;-82
2022/11/30 10:04:59;;;;;;;6.05;3.65;;;;;;;5.27;79.61;95341.38;5003500;28;20045;-82
2022/11/30 10:07:58;;;;;;;11.50;3.95;;;;;;;6.01;79.36;95451.91;5038313;28;20037;-82
2022/11/30 10:10:42;;;;;;;12.82;3.70;;;;;;;5.42;79.78;95340.84;5054221;28;20844;-81
2022/11/30 10:13:28;;;;;;;12.50;3.70;;;;;;;5.60;79.93;95348.53;5042607;28;20048;-81
2022/11/30 10:16:00;;;;;;;6.97;3.45;;;;;;;6.26;80.44;95433.06;5022328;28;20632;-81
2022/11/30 10:18:34;;;;;;;6.13;3.50;;;;;;;6.27;79.07;95437.28;5040966;28;20179;-81
2022/11/30 10:21:14;;;;;;;8.88;3.38;;;;;;;5.92;79.28;95375.16;5041401;28;20041;-81
2022/11/30 10:23:52;;;;;;;10.20;5.53;;;;;;;5.40;79.14;95309.53;5041533;28;20190;-82
2022/11/30 10:26:39;;;;;;;8.48;3.85;;;;;;;5.65;79.29;95348.59;5024037;28;20098;-82
2022/11/30 10:29:19;;;;;;;15.07;5.57;;;;;;;5.87;79.44;95369.78;5040009;28;20033;-80
2022/11/30 10:31:48;;;;;;;9.88;4.72;;;;;;;5.27;79.58;95278.28;5023160;28;20124;-82
2022/11/30 10:34:42;;;;;;;8.45;4.10;;;;;;;6.16;80.48;95423.97;5021910;28;20068;-81
2022/11/30 10:37:17;;;;;;;14.52;7.35;;;;;;;6.07;80.13;95429.88;5031350;28;20156;-80
2022/11/30 10:40:09;;;;;;;14.20;6.03;;;;;;;6.09;80.60;95427.81;5033766;28;20041;-80
2022/11/30 10:42:41;;;;;;;;;;;;;;;6.06;80.72;95431.72;5038107;28;20052;-80
2022/11/30 10:45:12;;;;;;;6.80;4.00;;;;;;;5.85;80.05;95390.28;5039213;28;19924;-80
2022/11/30 10:48:01;;;;;;;;;;;;;;;6.01;80.95;95422.94;5059956;28;20052;-80
2022/11/30 10:50:28;;;;;;;7.32;3.88;;;;;;;5.85;80.65;95389.47;5016227;28;19924;-80
2022/11/30 10:52:57;;;;;;;7.63;3.55;;;;;;;6.03;79.96;95415.56;5049251;28;20033;-81
2022/11/30 10:55:29;;;;;;;11.35;5.32;;;;;;;5.19;79.92;95280.53;5040797;28;20033;-80
2022/11/30 10:58:06;;;;;;;10.52;5.05;;;;;;;5.34;79.98;95294.69;5037556;28;20102;-82
2022/11/30 11:00:31;;;;;;;11.48;5.57;;;;;;;5.70;80.22;95346.09;5043946;28;20083;-86
2022/11/30 11:02:57;;;;;;;8.48;4.03;;;;;;;5.69;80.69;95354.22;5023566;28;20040;-81
2022/11/30 11:05:26;;;;;;;7.28;3.42;;;;;;;6.14;80.40;95410.25;5041473;28;20119;-81
2022/11/30 11:08:01;;;;;;;9.27;4.43;;;;;;;6.17;79.87;95404.50;5039183;28;20479;-80
2022/11/30 11:10:50;;;;;;;12.82;5.30;;;;;;;6.16;80.50;95405.53;5017845;28;20037;-80
2022/11/30 11:13:40;;;;;;;12.23;4.90;;;;;;;6.27;80.41;95405.69;5042004;28;21308;-80
2022/11/30 11:16:10;;;;;;;13.27;5.78;;;;;;;6.19;81.25;95412.16;5040030;28;20525;-80
2022/11/30 11:18:54;;;;;;;12.00;6.10;;;;;;;6.16;80.93;95399.47;5045857;28;20032;-80
2022/11/30 11:21:22;;;;;;;12.55;4.50;;;;;;;5.64;80.56;95304.13;5041294;28;20049;-81
2022/11/30 11:23:53;;;;;;;8.77;4.32;;;;;;;6.27;80.21;95397.78;5021871;28;20029;-81
2022/11/30 11:26:24;;;;;;;12.15;5.88;;;;;;;5.92;80.84;95351.44;5015737;28;20110;-82
2022/11/30 11:28:56;;;;;;;10.35;5.18;;;;;;;6.26;81.23;95398.81;5056844;28;20041;-82
2022/11/30 11:31:41;;;;;;;7.05;3.97;;;;;;;6.33;80.61;95402.09;5030058;28;20047;-80
2022/11/30 11:34:24;;;;;;;5.80;3.38;;;;;;;6.31;80.32;95396.28;5021233;28;20751;-81
2022/11/30 11:37:15;;;;;;;6.63;4.15;;;;;;;6.15;80.40;95395.25;5034360;28;20041;-80
2022/11/30 11:39:40;;;;;;;9.80;4.75;;;;;;;5.45;80.56;95287.78;5034505;28;20041;-80
2022/11/30 11:42:14;;;;;;;7.30;4.10;;;;;;;5.31;80.97;95294.38;5039793;28;20414;-81
2022/11/30 11:44:40;;;;;;;7.03;4.15;;;;;;;5.76;80.78;95349.59;5036388;28;20792;-81
2022/11/30 11:47:17;;;;;;;7.00;3.65;;;;;;;5.81;80.54;95349.66;5018900;28;20063;-80
2022/11/30 11:49:43;;;;;;;6.32;3.42;;;;;;;6.25;79.65;95405.16;5014190;28;20120;-81